Time;durP1;ratioP1;P1;durP2;ratioP2;P2;SDS_P1;SDS_P2;PMS_P1;PMS_P2;Temp;Humidity;BMP_temperature;BMP_pressure;BME280_temperature;BME280_humidity;BME280_pressure;Samples;Min_cycle;Max_cycle;Signal;HPM_P1;HPM_P2
2022/03/21 00:01:21;;;;;;;23.17;12.77;;;12.30;62.40;;;;;;5024216;28;20193;-77
2022/03/21 00:03:47;;;;;;;25.17;14.02;;;12.30;62.70;;;;;;5029199;28;20034;-77
2022/03/21 00:06:13;;;;;;;22.65;13.35;;;12.30;62.60;;;;;;5014877;28;20041;-77
2022/03/21 00:08:39;;;;;;;25.52;13.50;;;12.20;62.90;;;;;;5014873;28;20480;-78
2022/03/21 00:11:05;;;;;;;25.15;14.02;;;12.20;63.20;;;;;;5015073;28;20033;-77
2022/03/21 00:13:31;;;;;;;24.02;13.07;;;12.20;63.40;;;;;;5021645;28;20014;-77
2022/03/21 00:15:56;;;;;;;23.33;12.82;;;12.20;63.60;;;;;;5036983;28;20053;-77
2022/03/21 00:18:23;;;;;;;25.33;13.63;;;12.20;63.60;;;;;;5038374;28;20026;-77
2022/03/21 00:20:52;;;;;;;29.80;13.55;;;12.20;63.50;;;;;;5037780;28;20131;-77
2022/03/21 00:23:18;;;;;;;26.30;14.57;;;12.20;63.50;;;;;;5024860;28;20108;-77
2022/03/21 00:25:44;;;;;;;25.77;13.15;;;12.20;63.70;;;;;;5016789;28;20045;-77
2022/03/21 00:28:10;;;;;;;27.08;14.40;;;12.20;63.90;;;;;;5018455;28;20026;-77
2022/03/21 00:30:38;;;;;;;21.83;14.15;;;12.20;63.90;;;;;;5018322;28;20140;-78
2022/03/21 00:33:04;;;;;;;21.55;13.55;;;12.20;64.20;;;;;;5016938;28;20025;-77
2022/03/21 00:35:30;;;;;;;21.52;12.68;;;12.20;64.20;;;;;;5017944;28;20022;-77
2022/03/21 00:37:56;;;;;;;26.77;14.20;;;12.20;64.30;;;;;;5033149;28;20037;-77
2022/03/21 00:40:24;;;;;;;24.60;13.77;;;12.20;64.20;;;;;;5018374;28;20514;-78
2022/03/21 00:42:50;;;;;;;22.13;12.35;;;12.20;64.30;;;;;;5017223;28;20033;-77
2022/03/21 00:45:19;;;;;;;27.73;13.80;;;12.10;64.60;;;;;;5017040;28;20125;-77
2022/03/21 00:47:46;;;;;;;27.58;14.98;;;12.20;64.60;;;;;;5025630;28;20072;-77
2022/03/21 00:50:14;;;;;;;25.20;13.15;;;12.20;64.70;;;;;;5026955;28;20026;-77
2022/03/21 00:52:46;;;;;;;29.45;14.25;;;12.20;64.70;;;;;;5017810;28;20412;-77
2022/03/21 00:55:13;;;;;;;22.30;12.48;;;12.10;64.80;;;;;;5018091;28;20071;-77
2022/03/21 00:57:40;;;;;;;25.45;13.65;;;12.10;65.00;;;;;;5032731;28;20029;-77
2022/03/21 01:00:09;;;;;;;19.98;12.88;;;12.10;65.00;;;;;;5027112;28;20111;-77
2022/03/21 01:02:39;;;;;;;25.42;13.27;;;12.00;65.30;;;;;;5038659;28;20040;-77
2022/03/21 01:05:07;;;;;;;23.60;13.23;;;12.10;65.10;;;;;;5016375;28;20141;-77
2022/03/21 01:07:33;;;;;;;24.75;13.40;;;12.10;65.20;;;;;;5026300;28;20040;-77
2022/03/21 01:09:59;;;;;;;25.75;14.18;;;12.10;65.30;;;;;;5037241;28;20137;-77
2022/03/21 01:12:25;;;;;;;25.60;13.73;;;12.10;65.30;;;;;;5035510;28;20022;-77
2022/03/21 01:14:51;;;;;;;27.15;15.20;;;12.10;65.60;;;;;;5035439;28;20427;-77
2022/03/21 01:17:16;;;;;;;25.35;14.02;;;12.10;65.70;;;;;;5036063;28;20037;-77
2022/03/21 01:19:42;;;;;;;24.95;14.65;;;12.10;65.70;;;;;;5037212;28;20770;-77
2022/03/21 01:22:08;;;;;;;24.95;14.18;;;12.10;65.60;;;;;;5032100;28;20030;-77
2022/03/21 01:24:35;;;;;;;23.08;13.07;;;12.10;65.70;;;;;;5017012;28;20044;-77
2022/03/21 01:27:02;;;;;;;28.90;14.75;;;12.10;65.80;;;;;;5036781;28;20045;-77
2022/03/21 01:29:28;;;;;;;21.30;13.35;;;12.10;65.80;;;;;;5024912;28;20021;-77
2022/03/21 01:31:54;;;;;;;24.98;13.40;;;12.10;66.00;;;;;;5017183;28;20051;-78
2022/03/21 01:34:19;;;;;;;26.42;14.07;;;12.10;66.20;;;;;;5016570;28;20443;-77
2022/03/21 01:36:45;;;;;;;21.08;12.60;;;12.10;66.20;;;;;;5035197;28;20091;-77
2022/03/21 01:39:11;;;;;;;24.38;13.85;;;12.10;66.30;;;;;;5035665;28;20040;-78
2022/03/21 01:41:37;;;;;;;25.30;13.20;;;12.00;66.30;;;;;;5023826;28;20160;-77
2022/03/21 01:44:08;;;;;;;23.08;13.52;;;12.10;66.30;;;;;;5017153;28;20041;-78
2022/03/21 01:46:35;;;;;;;27.38;13.68;;;12.00;66.40;;;;;;5015986;28;20036;-77
2022/03/21 01:49:02;;;;;;;26.40;14.23;;;12.00;66.80;;;;;;5034903;28;20025;-77
2022/03/21 01:51:28;;;;;;;26.70;14.93;;;11.90;66.70;;;;;;5036383;28;20025;-77
2022/03/21 01:56:41;;;;;;;24.33;13.38;;;11.90;67.10;;;;;;5016817;28;20028;-77
2022/03/21 01:59:11;;;;;;;28.15;13.57;;;11.80;67.60;;;;;;5019328;28;20033;-77
2022/03/21 02:01:37;;;;;;;22.88;14.23;;;11.80;67.60;;;;;;5036339;28;20061;-77
2022/03/21 02:04:03;;;;;;;27.17;14.15;;;11.80;67.70;;;;;;5035150;28;20033;-78
2022/03/21 02:06:30;;;;;;;25.67;14.25;;;11.80;67.60;;;;;;5034932;28;20036;-77
2022/03/21 02:09:00;;;;;;;31.23;14.60;;;11.90;67.60;;;;;;5030970;28;20036;-77
2022/03/21 02:11:26;;;;;;;25.52;14.40;;;11.90;67.50;;;;;;5030158;28;20076;-78
2022/03/21 02:13:57;;;;;;;25.08;14.27;;;11.90;67.50;;;;;;5016533;28;20383;-77
2022/03/21 02:16:27;;;;;;;26.80;14.15;;;11.90;67.60;;;;;;5016463;28;20095;-77
2022/03/21 02:18:53;;;;;;;25.75;13.93;;;11.90;67.60;;;;;;5015275;28;20034;-77
2022/03/21 02:21:41;;;;;;;24.52;14.30;;;11.90;67.90;;;;;;5016145;28;20852;-77
2022/03/21 02:24:14;;;;;;;27.25;13.60;;;11.80;68.20;;;;;;5048932;28;20040;-77
2022/03/21 02:26:41;;;;;;;24.08;13.48;;;11.80;68.10;;;;;;5023731;28;20046;-77
2022/03/21 02:29:08;;;;;;;23.35;13.55;;;11.80;68.50;;;;;;5014252;28;20026;-77
2022/03/21 02:31:35;;;;;;;21.17;13.38;;;11.70;68.70;;;;;;5016093;28;20558;-77
2022/03/21 02:34:01;;;;;;;26.02;14.43;;;11.70;68.80;;;;;;5031237;28;20482;-77
2022/03/21 02:36:27;;;;;;;27.50;14.23;;;11.60;69.30;;;;;;5033903;28;20026;-77
2022/03/21 02:38:58;;;;;;;30.33;13.90;;;11.50;69.40;;;;;;5034572;28;20040;-77
2022/03/21 02:41:23;;;;;;;25.52;14.02;;;11.50;69.60;;;;;;5016389;28;20034;-77
2022/03/21 02:43:57;;;;;;;23.45;14.30;;;11.50;69.90;;;;;;5030956;28;20132;-78
2022/03/21 02:46:24;;;;;;;25.15;14.00;;;11.40;70.10;;;;;;5015677;28;20029;-77
2022/03/21 02:48:51;;;;;;;24.17;13.85;;;11.40;70.30;;;;;;5033692;28;20038;-77
2022/03/21 02:51:20;;;;;;;25.85;14.50;;;11.30;70.30;;;;;;5023398;28;20034;-77
2022/03/21 02:53:49;;;;;;;21.10;12.82;;;11.30;70.70;;;;;;5015963;28;20488;-77
2022/03/21 02:56:14;;;;;;;28.50;15.18;;;11.30;70.80;;;;;;5016198;28;20026;-77
2022/03/21 02:58:40;;;;;;;22.67;13.35;;;11.30;70.90;;;;;;5015692;28;20041;-77
2022/03/21 03:01:07;;;;;;;25.27;13.60;;;11.30;70.80;;;;;;5025399;28;20033;-77
2022/03/21 03:03:32;;;;;;;22.65;12.40;;;11.30;70.90;;;;;;5035502;28;20021;-77
2022/03/21 03:05:58;;;;;;;20.70;12.50;;;11.20;71.10;;;;;;5030743;28;20587;-77
2022/03/21 03:08:23;;;;;;;24.83;14.00;;;11.20;71.30;;;;;;5015411;28;20025;-77
2022/03/21 03:10:49;;;;;;;27.40;13.73;;;11.20;71.30;;;;;;5016015;28;20029;-77
2022/03/21 03:13:15;;;;;;;24.33;13.52;;;11.20;71.30;;;;;;5015597;28;20108;-77
2022/03/21 03:15:40;;;;;;;29.42;14.75;;;11.10;71.50;;;;;;5014251;28;20066;-77
2022/03/21 03:18:06;;;;;;;25.00;13.18;;;11.10;71.80;;;;;;5016077;28;20394;-77
2022/03/21 03:20:32;;;;;;;24.38;15.10;;;11.10;71.90;;;;;;5015438;28;20479;-77
2022/03/21 03:23:00;;;;;;;27.75;14.63;;;11.00;72.10;;;;;;5015718;28;20500;-77
2022/03/21 03:25:27;;;;;;;21.42;13.25;;;11.00;72.00;;;;;;5013271;28;20052;-77
2022/03/21 03:27:52;;;;;;;29.23;14.18;;;11.00;72.30;;;;;;5015287;28;20030;-76
2022/03/21 03:30:18;;;;;;;21.77;12.88;;;10.90;72.40;;;;;;5014048;28;20030;-77
2022/03/21 03:32:45;;;;;;;24.75;13.90;;;10.90;72.40;;;;;;5013878;28;20037;-77
2022/03/21 03:35:11;;;;;;;24.20;13.07;;;10.80;72.70;;;;;;5015737;28;20112;-76
2022/03/21 03:37:36;;;;;;;26.63;13.73;;;10.80;73.00;;;;;;5013983;28;20116;-77
2022/03/21 03:40:03;;;;;;;26.10;13.00;;;10.80;73.00;;;;;;5013850;28;20616;-77
2022/03/21 03:42:28;;;;;;;21.65;11.98;;;10.80;73.20;;;;;;5029834;28;20095;-77
2022/03/21 03:44:54;;;;;;;23.40;13.52;;;10.80;73.10;;;;;;5015160;28;20060;-77
2022/03/21 03:47:20;;;;;;;25.23;12.75;;;10.80;73.20;;;;;;5049491;28;20029;-77
2022/03/21 03:49:46;;;;;;;23.27;11.95;;;10.80;73.20;;;;;;5019124;28;20021;-76
2022/03/21 03:52:11;;;;;;;24.90;14.13;;;10.70;73.40;;;;;;5017787;28;20026;-77
2022/03/21 03:54:37;;;;;;;19.88;11.70;;;10.70;73.50;;;;;;5019075;28;20053;-77
2022/03/21 03:57:03;;;;;;;21.60;12.20;;;10.70;73.60;;;;;;5017972;28;20029;-77
2022/03/21 03:59:28;;;;;;;19.70;12.25;;;10.70;73.40;;;;;;5023239;28;20025;-77
2022/03/21 04:01:54;;;;;;;25.40;12.77;;;10.70;73.60;;;;;;5038295;28;20034;-77
2022/03/21 04:04:20;;;;;;;21.05;12.90;;;10.70;73.60;;;;;;5033304;28;20054;-77
2022/03/21 04:06:45;;;;;;;23.02;12.82;;;10.70;73.70;;;;;;5017684;28;20036;-77
2022/03/21 04:09:11;;;;;;;20.58;12.52;;;10.70;73.60;;;;;;5019167;28;20479;-77
2022/03/21 04:11:37;;;;;;;20.52;11.35;;;10.60;73.80;;;;;;5018630;28;20032;-77
2022/03/21 04:14:02;;;;;;;23.42;12.48;;;10.60;73.80;;;;;;5017388;28;20053;-77
2022/03/21 04:16:29;;;;;;;21.77;12.00;;;10.60;74.20;;;;;;5018554;28;20061;-77
2022/03/21 04:18:54;;;;;;;18.38;10.93;;;10.60;74.20;;;;;;5050685;28;20022;-77
2022/03/21 04:21:20;;;;;;;20.95;11.10;;;10.50;74.20;;;;;;5049837;28;20030;-77
2022/03/21 04:23:46;;;;;;;23.45;11.20;;;10.50;74.40;;;;;;5033645;28;20076;-77
2022/03/21 04:26:12;;;;;;;21.13;11.38;;;10.50;74.40;;;;;;5069510;28;20408;-77
2022/03/21 04:28:38;;;;;;;16.92;10.35;;;10.40;74.70;;;;;;5038206;28;20119;-77
2022/03/21 04:31:04;;;;;;;18.67;10.13;;;10.50;74.80;;;;;;5029738;28;20368;-77
2022/03/21 04:33:30;;;;;;;18.60;10.98;;;10.40;74.90;;;;;;5016860;28;20104;-77
2022/03/21 04:35:55;;;;;;;21.95;10.60;;;10.40;75.00;;;;;;5018533;28;20476;-77
2022/03/21 04:38:21;;;;;;;18.67;10.85;;;10.40;75.00;;;;;;5018375;28;20544;-77
2022/03/21 04:40:49;;;;;;;18.70;10.88;;;10.40;75.10;;;;;;5017844;28;20088;-77
2022/03/21 04:43:16;;;;;;;19.35;11.10;;;10.30;75.30;;;;;;5018062;28;20022;-77
2022/03/21 04:45:43;;;;;;;18.23;9.25;;;10.30;75.40;;;;;;5018050;28;20768;-77
2022/03/21 04:48:10;;;;;;;17.77;10.48;;;10.30;75.60;;;;;;5030629;28;20033;-77
2022/03/21 04:50:35;;;;;;;15.90;9.95;;;10.30;75.60;;;;;;5037726;28;20030;-77
2022/03/21 04:53:02;;;;;;;20.75;10.80;;;10.30;75.80;;;;;;5032682;28;20133;-77
2022/03/21 04:55:28;;;;;;;15.32;9.55;;;10.30;75.90;;;;;;5018100;28;20108;-77
2022/03/21 04:57:54;;;;;;;18.30;9.85;;;10.30;75.90;;;;;;5016612;28;20029;-77
2022/03/21 05:00:20;;;;;;;20.40;10.20;;;10.30;75.70;;;;;;5018684;28;20125;-76
2022/03/21 05:02:46;;;;;;;17.80;10.32;;;10.20;76.00;;;;;;5032600;28;20028;-77
2022/03/21 05:05:12;;;;;;;16.65;9.80;;;10.20;76.00;;;;;;5026268;28;20034;-77
2022/03/21 05:07:42;;;;;;;16.75;8.80;;;10.20;76.10;;;;;;5016194;28;20030;-77
2022/03/21 05:10:09;;;;;;;16.45;9.40;;;10.20;76.10;;;;;;5016386;28;20030;-77
2022/03/21 05:12:36;;;;;;;15.73;8.80;;;10.10;76.40;;;;;;5016314;28;20124;-77
2022/03/21 05:15:03;;;;;;;14.80;9.32;;;10.20;76.20;;;;;;5049822;28;20083;-77
2022/03/21 05:17:29;;;;;;;17.80;9.68;;;10.20;76.20;;;;;;5017029;28;20053;-77
2022/03/21 05:19:55;;;;;;;19.58;9.95;;;10.20;76.30;;;;;;5017419;28;20026;-77
2022/03/21 05:22:21;;;;;;;14.85;7.55;;;10.10;76.40;;;;;;5017679;28;20599;-77
2022/03/21 05:35:55;;;;;;;15.02;9.95;;;10.10;76.60;;;;;;5017116;28;20106;-77
2022/03/21 05:38:28;;;;;;;17.38;8.55;;;10.00;76.80;;;;;;5017476;28;20030;-77
2022/03/21 05:40:58;;;;;;;15.93;8.65;;;10.00;76.80;;;;;;5017176;28;20062;-77
2022/03/21 05:43:24;;;;;;;14.68;8.43;;;10.10;76.70;;;;;;5040849;28;20553;-77
2022/03/21 05:45:51;;;;;;;16.65;7.78;;;10.00;76.70;;;;;;5031293;28;20038;-77
2022/03/21 06:00:41;;;;;;;13.93;7.85;;;9.20;79.60;;;;;;5072101;28;20453;-81
2022/03/21 06:03:08;;;;;;;13.00;8.00;;;9.10;80.20;;;;;;5068748;28;20039;-80
2022/03/21 06:05:35;;;;;;;12.50;7.22;;;9.30;79.90;;;;;;5070882;28;20051;-78
2022/03/21 06:08:00;;;;;;;13.95;8.88;;;9.50;79.30;;;;;;5064030;28;20028;-78
2022/03/21 06:10:26;;;;;;;13.73;8.15;;;9.70;78.60;;;;;;5070323;28;20033;-81
2022/03/21 06:12:52;;;;;;;13.23;8.40;;;9.80;78.10;;;;;;5065528;28;20025;-80
2022/03/21 06:15:17;;;;;;;13.38;7.28;;;9.90;77.70;;;;;;5068651;28;20051;-75
2022/03/21 06:17:44;;;;;;;12.85;8.35;;;10.00;77.50;;;;;;5061037;28;20033;-74
2022/03/21 06:20:14;;;;;;;11.32;7.10;;;10.00;77.10;;;;;;5057586;28;20032;-79
2022/03/21 06:22:40;;;;;;;14.80;8.05;;;10.10;77.00;;;;;;5070938;28;20028;-77
2022/03/21 06:25:09;;;;;;;12.82;7.53;;;10.20;76.60;;;;;;5065266;28;20016;-80
2022/03/21 06:27:37;;;;;;;14.93;8.23;;;10.20;76.60;;;;;;5092951;28;20037;-80
2022/03/21 06:30:08;;;;;;;14.40;7.20;;;10.20;76.70;;;;;;5065378;28;20064;-80
2022/03/21 06:32:34;;;;;;;14.68;7.60;;;10.20;76.60;;;;;;5061617;28;20036;-80
2022/03/21 06:35:00;;;;;;;11.35;7.05;;;10.30;76.30;;;;;;5071250;28;20021;-80
2022/03/21 06:37:26;;;;;;;13.20;6.95;;;10.30;76.10;;;;;;5071012;28;20059;-81
2022/03/21 06:39:51;;;;;;;10.10;6.55;;;10.40;76.10;;;;;;5071305;28;20025;-81
2022/03/21 06:42:21;;;;;;;13.52;7.53;;;10.40;75.80;;;;;;5053244;28;20028;-81
2022/03/21 06:44:48;;;;;;;14.90;7.53;;;10.60;75.40;;;;;;5050889;28;20051;-81
2022/03/21 06:47:14;;;;;;;13.38;7.82;;;10.60;75.20;;;;;;5066071;28;20457;-81
2022/03/21 06:49:39;;;;;;;13.20;7.38;;;10.70;74.80;;;;;;5070174;28;20056;-81
2022/03/21 06:52:08;;;;;;;11.77;7.75;;;10.80;74.60;;;;;;5068891;28;20071;-82
2022/03/21 06:54:35;;;;;;;8.95;6.13;;;10.70;74.30;;;;;;5065358;28;20490;-81
2022/03/21 06:57:01;;;;;;;11.80;7.43;;;10.80;74.10;;;;;;5065306;28;20091;-80
2022/03/21 06:59:29;;;;;;;12.10;7.25;;;10.80;74.00;;;;;;5063647;28;20044;-77
2022/03/21 07:01:55;;;;;;;10.77;7.22;;;10.90;73.70;;;;;;5063489;28;20490;-80
2022/03/21 07:04:21;;;;;;;9.48;6.20;;;11.00;73.50;;;;;;5068210;28;20104;-79
2022/03/21 07:06:47;;;;;;;10.75;6.07;;;11.20;73.00;;;;;;5069683;28;20052;-75
2022/03/21 07:09:13;;;;;;;10.82;6.50;;;11.80;70.80;;;;;;5067703;28;20542;-77
2022/03/21 07:11:38;;;;;;;9.88;6.40;;;12.50;68.60;;;;;;5056244;28;20032;-76
2022/03/21 07:14:04;;;;;;;9.88;6.22;;;13.00;66.90;;;;;;5055474;28;20021;-76
2022/03/21 07:16:30;;;;;;;11.88;6.85;;;13.30;65.80;;;;;;5050987;28;20026;-76
2022/03/21 07:18:55;;;;;;;9.13;6.50;;;13.50;64.40;;;;;;5057025;28;20052;-76
2022/03/21 07:21:21;;;;;;;9.55;6.03;;;13.70;63.80;;;;;;5055484;28;20373;-77
2022/03/21 07:23:47;;;;;;;9.65;6.05;;;14.30;61.90;;;;;;5048780;28;20825;-76
2022/03/21 07:26:13;;;;;;;9.60;5.88;;;14.70;59.70;;;;;;5047659;28;20048;-76
2022/03/21 07:28:39;;;;;;;9.23;5.43;;;15.00;59.10;;;;;;5053742;28;20033;-77
2022/03/21 07:31:09;;;;;;;8.35;5.78;;;15.30;57.80;;;;;;5055905;28;20021;-76
2022/03/21 07:33:35;;;;;;;;;;;15.90;56.40;;;;;;5057357;28;20108;-76
2022/03/21 07:36:01;;;;;;;7.60;5.13;;;16.40;54.20;;;;;;5053942;28;19917;-77
2022/03/21 07:38:29;;;;;;;7.72;5.35;;;16.90;53.10;;;;;;5040406;28;20021;-77
2022/03/21 07:40:55;;;;;;;9.45;5.35;;;17.20;50.80;;;;;;5055104;28;20021;-77
2022/03/21 07:43:21;;;;;;;7.35;5.22;;;17.60;50.30;;;;;;5054565;28;20120;-77
2022/03/21 07:48:31;;;;;;;8.00;5.07;;;18.00;49.60;;;;;;5057231;28;20039;-78
2022/03/21 07:50:57;;;;;;;6.15;4.95;;;18.40;48.30;;;;;;5056780;28;20021;-78
2022/03/21 07:53:23;;;;;;;7.75;4.57;;;18.80;47.00;;;;;;5041691;28;20178;-78
2022/03/21 07:55:49;;;;;;;6.05;4.78;;;19.30;46.70;;;;;;5037037;28;20196;-77
2022/03/21 07:58:15;;;;;;;6.53;4.55;;;19.80;45.60;;;;;;5036895;28;20049;-77
2022/03/21 08:00:41;;;;;;;6.00;4.88;;;19.90;44.40;;;;;;5051279;28;20418;-75
2022/03/21 08:03:15;;;;;;;6.18;4.40;;;20.00;43.40;;;;;;5056590;28;20056;-77
2022/03/21 08:05:41;;;;;;;8.35;5.07;;;20.20;44.10;;;;;;5056054;28;20060;-75
2022/03/21 08:08:07;;;;;;;5.70;4.18;;;20.60;42.90;;;;;;5055680;28;20456;-76
2022/03/21 08:10:34;;;;;;;6.40;4.32;;;20.70;42.70;;;;;;5037625;28;20064;-76
2022/03/21 08:12:59;;;;;;;5.97;4.65;;;20.50;42.30;;;;;;5054834;28;20047;-76
2022/03/21 08:15:26;;;;;;;6.43;4.60;;;20.30;43.20;;;;;;5056496;28;20445;-77
2022/03/21 08:17:57;;;;;;;7.15;4.40;;;20.30;42.70;;;;;;5056978;28;20483;-76
2022/03/21 08:20:26;;;;;;;8.52;4.10;;;20.40;43.00;;;;;;5059748;28;20033;-76
2022/03/21 08:22:52;;;;;;;7.50;4.70;;;20.80;42.30;;;;;;5043925;28;20048;-76
2022/03/21 08:25:21;;;;;;;6.18;4.28;;;20.90;42.20;;;;;;5036244;28;20484;-76
2022/03/21 08:27:47;;;;;;;6.93;4.18;;;20.90;41.60;;;;;;5036633;28;20033;-76
2022/03/21 08:30:15;;;;;;;4.97;4.13;;;21.20;41.40;;;;;;5036155;28;20040;-76
2022/03/21 08:32:45;;;;;;;7.32;5.10;;;21.40;40.60;;;;;;5034893;28;20112;-75
2022/03/21 08:35:12;;;;;;;5.60;3.83;;;21.80;40.00;;;;;;5036353;28;20021;-76
2022/03/21 08:37:37;;;;;;;7.18;4.03;;;21.80;39.00;;;;;;5036223;28;20521;-76
2022/03/21 08:40:04;;;;;;;5.75;3.65;;;22.20;39.40;;;;;;5035896;28;20033;-77
2022/03/21 08:42:30;;;;;;;4.78;3.47;;;22.30;38.30;;;;;;5036008;28;20053;-76
2022/03/21 08:44:56;;;;;;;5.47;3.72;;;22.30;38.20;;;;;;5034802;28;20036;-77
2022/03/21 08:47:24;;;;;;;4.35;3.25;;;22.70;37.70;;;;;;5041304;28;20399;-77
2022/03/21 08:49:49;;;;;;;4.07;3.22;;;23.10;37.50;;;;;;5049926;28;20529;-77
2022/03/21 08:52:15;;;;;;;4.53;3.33;;;23.50;36.90;;;;;;5035724;28;20029;-77
2022/03/21 08:54:41;;;;;;;4.40;3.00;;;23.90;35.20;;;;;;5048207;28;20036;-77
2022/03/21 08:57:07;;;;;;;3.97;3.20;;;23.40;35.70;;;;;;5053509;28;20489;-77
2022/03/21 08:59:33;;;;;;;4.53;3.00;;;23.80;34.90;;;;;;5053664;28;20190;-77
2022/03/21 09:01:59;;;;;;;4.65;3.33;;;23.80;35.30;;;;;;5049739;28;20116;-77
2022/03/21 09:04:25;;;;;;;4.32;3.20;;;23.80;35.90;;;;;;5035722;28;20083;-77
2022/03/21 09:06:50;;;;;;;3.08;2.78;;;23.60;35.70;;;;;;5035613;28;20029;-77
2022/03/21 09:09:18;;;;;;;3.08;2.60;;;23.50;35.50;;;;;;5035660;28;20029;-77
2022/03/21 09:11:44;;;;;;;3.22;2.83;;;22.70;36.70;;;;;;5035932;28;20032;-76
2022/03/21 09:14:12;;;;;;;6.43;3.20;;;22.80;36.50;;;;;;5034858;28;20104;-77
2022/03/21 09:16:39;;;;;;;4.75;3.25;;;22.90;36.50;;;;;;5050604;28;20088;-77
2022/03/21 09:19:05;;;;;;;4.63;3.50;;;22.80;36.90;;;;;;5052224;28;20021;-77
2022/03/21 09:21:31;;;;;;;3.80;3.13;;;23.10;37.10;;;;;;5054744;28;20037;-78
2022/03/21 09:23:57;;;;;;;4.53;3.10;;;23.20;36.30;;;;;;5054764;28;20032;-78
2022/03/21 09:26:23;;;;;;;3.70;3.05;;;23.00;35.90;;;;;;5042727;28;20436;-78
2022/03/21 09:28:49;;;;;;;5.13;3.45;;;23.00;36.40;;;;;;5033991;28;20043;-78
2022/03/21 09:31:16;;;;;;;4.35;3.15;;;23.10;36.80;;;;;;5035427;28;20405;-78
2022/03/21 09:33:42;;;;;;;3.95;2.85;;;22.40;37.50;;;;;;5033425;28;20113;-77
2022/03/21 09:36:09;;;;;;;3.80;3.00;;;22.50;37.50;;;;;;5042356;28;20055;-77
2022/03/21 09:38:37;;;;;;;5.07;3.58;;;22.80;37.60;;;;;;5055371;28;20017;-78
2022/03/21 09:41:04;;;;;;;6.15;3.28;;;22.80;37.00;;;;;;5054596;28;20056;-77
2022/03/21 09:43:30;;;;;;;7.22;3.42;;;22.70;37.20;;;;;;5035724;28;20061;-78
2022/03/21 09:45:58;;;;;;;4.18;3.17;;;22.40;37.50;;;;;;5034940;28;20025;-78
2022/03/21 09:48:27;;;;;;;4.03;3.42;;;22.20;38.10;;;;;;5050242;28;20029;-78
2022/03/21 09:50:56;;;;;;;3.67;2.90;;;23.30;37.70;;;;;;5053602;28;20094;-79
2022/03/21 09:53:23;;;;;;;4.07;3.13;;;22.80;37.20;;;;;;5054379;28;20028;-79
2022/03/21 09:55:48;;;;;;;5.03;3.53;;;22.90;38.20;;;;;;5054408;28;20399;-79
2022/03/21 09:58:14;;;;;;;4.57;3.53;;;23.10;37.40;;;;;;5035336;28;20033;-78
2022/03/21 10:00:42;;;;;;;5.90;3.58;;;23.00;37.40;;;;;;5082579;28;20021;-78
2022/03/21 10:03:08;;;;;;;6.18;3.53;;;22.60;38.20;;;;;;5049145;28;20091;-78
2022/03/21 10:05:42;;;;;;;4.43;3.47;;;22.40;38.40;;;;;;5050939;28;20039;-79
2022/03/21 10:08:16;;;;;;;3.63;3.20;;;22.40;38.30;;;;;;5054782;28;20036;-79
2022/03/21 10:10:51;;;;;;;4.90;3.22;;;22.30;39.20;;;;;;5051363;28;20044;-78
2022/03/21 10:13:21;;;;;;;3.33;2.92;;;22.30;39.10;;;;;;5054439;28;20029;-78
2022/03/21 10:15:47;;;;;;;3.90;3.35;;;21.90;39.60;;;;;;5034780;28;20029;-78
2022/03/21 10:18:13;;;;;;;3.75;2.65;;;21.50;40.40;;;;;;5048989;28;20097;-78
2022/03/21 10:20:40;;;;;;;4.40;2.92;;;21.30;41.20;;;;;;5052929;28;20570;-78
2022/03/21 10:23:22;;;;;;;6.60;2.90;;;20.80;42.00;;;;;;5047104;28;20079;-78
2022/03/21 10:25:49;;;;;;;3.30;2.30;;;20.30;44.00;;;;;;5034800;28;20079;-78
2022/03/21 10:28:36;;;;;;;3.67;2.90;;;19.50;45.20;;;;;;5042952;28;20036;-78
2022/03/21 10:31:03;;;;;;;2.90;2.25;;;18.50;48.10;;;;;;5046508;28;20064;-78
2022/03/21 10:33:29;;;;;;;5.63;2.90;;;18.40;49.20;;;;;;5034177;28;20033;-78
2022/03/21 10:35:55;;;;;;;4.85;2.42;;;18.30;48.70;;;;;;5032778;28;20048;-78
2022/03/21 10:38:32;;;;;;;4.30;2.92;;;18.30;50.10;;;;;;5034659;28;20021;-78
2022/03/21 10:41:05;;;;;;;5.15;2.75;;;18.20;49.90;;;;;;5046723;28;20032;-78
2022/03/21 10:43:31;;;;;;;3.60;2.65;;;17.80;51.30;;;;;;5052577;28;20045;-78
2022/03/21 10:45:57;;;;;;;4.88;3.08;;;17.70;51.10;;;;;;5054899;28;20025;-78
2022/03/21 10:48:26;;;;;;;5.90;3.00;;;18.00;51.00;;;;;;5055300;28;20025;-78
2022/03/21 10:50:54;;;;;;;5.70;3.08;;;17.50;52.20;;;;;;5054030;28;20040;-79
2022/03/21 10:53:36;;;;;;;4.60;2.95;;;17.60;52.60;;;;;;5037560;28;20044;-79
2022/03/21 10:56:07;;;;;;;5.53;3.50;;;17.50;52.00;;;;;;5038041;28;20071;-79
2022/03/21 10:58:43;;;;;;;3.88;3.13;;;17.40;51.60;;;;;;5037974;28;20110;-78
2022/03/21 11:01:25;;;;;;;3.88;2.63;;;17.50;52.40;;;;;;5057649;28;20104;-78
2022/03/21 11:04:00;;;;;;;6.57;2.95;;;17.30;53.00;;;;;;5056047;28;20503;-78
2022/03/21 11:06:29;;;;;;;4.15;2.75;;;17.30;53.50;;;;;;5038215;28;20025;-78
2022/03/21 11:08:55;;;;;;;4.43;2.85;;;17.50;52.20;;;;;;5036642;28;20025;-78
2022/03/21 11:11:21;;;;;;;4.65;3.20;;;17.60;52.90;;;;;;5057340;28;20020;-78
2022/03/21 11:13:48;;;;;;;5.13;2.83;;;17.90;53.40;;;;;;5058057;28;20068;-78
2022/03/21 11:16:18;;;;;;;5.13;2.75;;;17.90;52.80;;;;;;5057906;28;20079;-78
2022/03/21 11:18:46;;;;;;;5.78;3.25;;;17.90;52.40;;;;;;5038835;28;20029;-78
2022/03/21 11:21:13;;;;;;;5.97;3.20;;;17.80;52.20;;;;;;5037121;28;20557;-78
2022/03/21 11:23:39;;;;;;;4.75;2.88;;;17.80;52.30;;;;;;5035608;28;20032;-78
2022/03/21 11:26:22;;;;;;;4.72;3.28;;;17.90;51.90;;;;;;5036862;28;20144;-78
2022/03/21 11:29:09;;;;;;;6.05;2.60;;;17.70;52.80;;;;;;5036366;28;20492;-78
2022/03/21 11:32:05;;;;;;;5.85;2.75;;;17.80;52.70;;;;;;5037164;28;20049;-78
2022/03/21 11:34:33;;;;;;;4.70;3.40;;;17.80;53.50;;;;;;5037579;28;20104;-78
2022/03/21 11:36:59;;;;;;;6.38;3.05;;;17.90;52.40;;;;;;5037593;28;20033;-78
2022/03/21 11:39:26;;;;;;;6.25;2.83;;;17.90;52.50;;;;;;5036207;28;20447;-78
2022/03/21 11:42:22;;;;;;;6.00;2.65;;;18.00;52.40;;;;;;5037087;28;20040;-78
2022/03/21 11:45:26;;;;;;;5.35;2.95;;;18.30;53.10;;;;;;5037370;28;20582;-77
2022/03/21 11:48:31;;;;;;;4.18;2.40;;;18.30;52.00;;;;;;5048040;28;20462;-78
2022/03/21 11:50:57;;;;;;;3.50;2.33;;;18.00;52.10;;;;;;5054308;28;20033;-78
2022/03/21 11:53:31;;;;;;;4.00;2.58;;;18.00;52.30;;;;;;5055056;28;20459;-78
2022/03/21 11:55:57;;;;;;;4.47;2.80;;;17.90;52.50;;;;;;5054859;28;20024;-78
2022/03/21 11:58:23;;;;;;;4.65;2.85;;;18.00;52.60;;;;;;5036544;28;20028;-78
2022/03/21 12:01:08;;;;;;;5.45;2.42;;;17.90;52.00;;;;;;5055443;28;20024;-78
2022/03/21 12:03:38;;;;;;;4.38;2.72;;;18.00;52.60;;;;;;5048874;28;20399;-77
2022/03/21 12:06:24;;;;;;;6.13;2.80;;;17.80;52.50;;;;;;5035663;28;20029;-77
2022/03/21 12:08:51;;;;;;;6.22;2.90;;;18.00;52.80;;;;;;5034991;28;20029;-77
2022/03/21 12:11:48;;;;;;;6.05;2.95;;;18.00;52.00;;;;;;5056437;28;20493;-77
2022/03/21 12:14:23;;;;;;;5.28;2.53;;;17.90;52.40;;;;;;5048918;28;20068;-78
2022/03/21 12:17:01;;;;;;;3.85;2.33;;;18.20;52.80;;;;;;5045420;28;20065;-78
2022/03/21 12:22:30;;;;;;;3.58;2.65;;;18.30;52.50;;;;;;5034657;28;20034;-77
2022/03/21 12:25:21;;;;;;;3.03;1.60;;;18.20;51.90;;;;;;5037367;28;20036;-78
2022/03/21 12:27:59;;;;;;;3.05;2.20;;;18.10;51.90;;;;;;5036986;28;20033;-78
2022/03/21 12:30:29;;;;;;;4.80;2.53;;;18.00;52.70;;;;;;5035025;28;20022;-77
2022/03/21 12:32:57;;;;;;;5.03;2.40;;;17.90;53.10;;;;;;5036355;28;20492;-76
2022/03/21 12:35:32;;;;;;;5.45;2.60;;;18.00;52.20;;;;;;5036165;28;20452;-77
2022/03/21 12:38:06;;;;;;;3.63;2.38;;;18.20;52.70;;;;;;5037590;28;20029;-78
2022/03/21 12:40:34;;;;;;;4.57;2.10;;;18.20;51.90;;;;;;5053221;28;20025;-76
2022/03/21 12:43:01;;;;;;;3.28;2.13;;;18.20;51.90;;;;;;5048431;28;20037;-77
2022/03/21 12:45:29;;;;;;;6.03;2.13;;;18.00;51.90;;;;;;5049677;28;20658;-77
2022/03/21 12:48:08;;;;;;;8.18;2.17;;;18.20;51.50;;;;;;5045106;28;20024;-77
2022/03/21 12:50:35;;;;;;;5.05;2.10;;;18.20;51.80;;;;;;5053727;28;20411;-75
2022/03/21 12:53:06;;;;;;;2.88;2.20;;;18.20;51.70;;;;;;5054983;28;20021;-74
2022/03/21 12:55:33;;;;;;;4.53;2.47;;;18.30;51.60;;;;;;5053534;28;20033;-86
2022/03/21 12:58:00;;;;;;;4.38;2.50;;;18.10;51.20;;;;;;5055027;28;20060;-81
2022/03/21 13:00:28;;;;;;;3.75;2.13;;;18.00;51.90;;;;;;5053064;28;20493;-78
2022/03/21 13:02:57;;;;;;;3.92;2.15;;;18.00;51.90;;;;;;5051967;28;20041;-75
2022/03/21 13:10:55;;;;;;;3.97;2.35;;;18.30;51.60;;;;;;5038581;28;20531;-76
2022/03/21 13:13:23;;;;;;;6.05;2.28;;;18.30;51.80;;;;;;5054483;28;20032;-76
2022/03/21 13:16:03;;;;;;;3.47;2.60;;;18.40;52.40;;;;;;5055452;28;20017;-76
2022/03/21 13:18:39;;;;;;;4.57;2.58;;;18.30;51.40;;;;;;5055167;28;20513;-76
2022/03/21 13:21:06;;;;;;;3.83;2.28;;;18.40;51.70;;;;;;5054814;28;20112;-76